sensor_id;sensor_type;location;lat;lon;timestamp;temperature;humidity
14359;DHT22;7263;49.418;11.064;2023-04-01T00:01:00;8.10;99.90
14359;DHT22;7263;49.418;11.064;2023-04-01T00:03:28;8.10;99.90
14359;DHT22;7263;49.418;11.064;2023-04-01T00:05:55;8.20;99.90
14359;DHT22;7263;49.418;11.064;2023-04-01T00:08:25;8.20;99.90
14359;DHT22;7263;49.418;11.064;2023-04-01T00:10:52;8.30;99.90
14359;DHT22;7263;49.418;11.064;2023-04-01T00:13:20;8.30;99.90
14359;DHT22;7263;49.418;11.064;2023-04-01T00:15:48;8.30;99.90
14359;DHT22;7263;49.418;11.064;2023-04-01T00:18:15;8.30;99.90
14359;DHT22;7263;49.418;11.064;2023-04-01T00:20:44;8.40;99.90
14359;DHT22;7263;49.418;11.064;2023-04-01T00:23:11;8.50;99.90
14359;DHT22;7263;49.418;11.064;2023-04-01T00:25:39;8.50;99.90
14359;DHT22;7263;49.418;11.064;2023-04-01T00:28:06;8.50;99.90
14359;DHT22;7263;49.418;11.064;2023-04-01T00:30:33;8.60;99.90
14359;DHT22;7263;49.418;11.064;2023-04-01T00:32:59;6.50;99.90
14359;DHT22;7263;49.418;11.064;2023-04-01T00:35:26;8.70;99.90
14359;DHT22;7263;49.418;11.064;2023-04-01T00:37:54;8.70;99.90
14359;DHT22;7263;49.418;11.064;2023-04-01T00:40:30;8.70;99.90
14359;DHT22;7263;49.418;11.064;2023-04-01T00:42:59;8.70;99.90
14359;DHT22;7263;49.418;11.064;2023-04-01T00:45:32;8.70;99.90
14359;DHT22;7263;49.418;11.064;2023-04-01T00:48:03;8.70;99.90
14359;DHT22;7263;49.418;11.064;2023-04-01T00:50:32;8.70;99.90
14359;DHT22;7263;49.418;11.064;2023-04-01T00:53:01;8.70;99.90
14359;DHT22;7263;49.418;11.064;2023-04-01T00:55:30;7.40;99.90
14359;DHT22;7263;49.418;11.064;2023-04-01T00:58:00;8.70;99.90
14359;DHT22;7263;49.418;11.064;2023-04-01T01:00:28;8.70;99.90
14359;DHT22;7263;49.418;11.064;2023-04-01T01:02:57;8.70;99.90
14359;DHT22;7263;49.418;11.064;2023-04-01T01:05:30;8.70;99.90
14359;DHT22;7263;49.418;11.064;2023-04-01T01:08:06;8.80;99.90
14359;DHT22;7263;49.418;11.064;2023-04-01T01:10:38;8.80;99.90
14359;DHT22;7263;49.418;11.064;2023-04-01T01:13:11;8.70;99.90
14359;DHT22;7263;49.418;11.064;2023-04-01T01:15:44;8.80;99.90
14359;DHT22;7263;49.418;11.064;2023-04-01T01:18:17;8.70;99.90
14359;DHT22;7263;49.418;11.064;2023-04-01T01:21:11;12.10;99.90
14359;DHT22;7263;49.418;11.064;2023-04-01T01:24:04;8.70;99.90
14359;DHT22;7263;49.418;11.064;2023-04-01T01:26:49;8.60;99.90
14359;DHT22;7263;49.418;11.064;2023-04-01T01:29:42;8.70;99.90
14359;DHT22;7263;49.418;11.064;2023-04-01T01:32:23;8.60;99.90
14359;DHT22;7263;49.418;11.064;2023-04-01T01:35:06;8.60;99.90
14359;DHT22;7263;49.418;11.064;2023-04-01T01:37:34;8.70;99.90
14359;DHT22;7263;49.418;11.064;2023-04-01T01:40:05;8.70;99.90
14359;DHT22;7263;49.418;11.064;2023-04-01T01:42:35;8.70;99.90
14359;DHT22;7263;49.418;11.064;2023-04-01T01:45:04;8.70;99.90
14359;DHT22;7263;49.418;11.064;2023-04-01T01:47:33;8.70;99.90
14359;DHT22;7263;49.418;11.064;2023-04-01T01:50:01;8.70;99.90
14359;DHT22;7263;49.418;11.064;2023-04-01T01:52:35;8.70;99.90
14359;DHT22;7263;49.418;11.064;2023-04-01T01:55:21;8.70;99.90
14359;DHT22;7263;49.418;11.064;2023-04-01T01:57:49;8.70;99.90
14359;DHT22;7263;49.418;11.064;2023-04-01T02:00:17;8.70;99.90
14359;DHT22;7263;49.418;11.064;2023-04-01T02:02:47;8.70;99.90
14359;DHT22;7263;49.418;11.064;2023-04-01T02:05:17;8.70;99.90
14359;DHT22;7263;49.418;11.064;2023-04-01T02:07:49;8.70;99.90
14359;DHT22;7263;49.418;11.064;2023-04-01T02:10:21;8.70;99.90
14359;DHT22;7263;49.418;11.064;2023-04-01T02:12:49;8.70;99.90
14359;DHT22;7263;49.418;11.064;2023-04-01T02:15:19;8.70;99.90
14359;DHT22;7263;49.418;11.064;2023-04-01T02:17:48;8.70;99.90
14359;DHT22;7263;49.418;11.064;2023-04-01T02:20:18;8.70;99.90
14359;DHT22;7263;49.418;11.064;2023-04-01T02:22:50;8.60;99.90
14359;DHT22;7263;49.418;11.064;2023-04-01T02:25:19;8.60;99.90
14359;DHT22;7263;49.418;11.064;2023-04-01T02:27:47;8.60;99.90
14359;DHT22;7263;49.418;11.064;2023-04-01T02:30:15;8.60;99.90
14359;DHT22;7263;49.418;11.064;2023-04-01T02:32:43;8.60;99.90
14359;DHT22;7263;49.418;11.064;2023-04-01T02:35:13;8.70;99.90
14359;DHT22;7263;49.418;11.064;2023-04-01T02:37:42;8.90;99.90
14359;DHT22;7263;49.418;11.064;2023-04-01T02:40:12;8.70;99.90
14359;DHT22;7263;49.418;11.064;2023-04-01T02:42:39;8.70;99.90
14359;DHT22;7263;49.418;11.064;2023-04-01T02:45:07;8.60;99.90
14359;DHT22;7263;49.418;11.064;2023-04-01T02:47:34;8.70;99.90
14359;DHT22;7263;49.418;11.064;2023-04-01T02:50:01;8.60;99.90
14359;DHT22;7263;49.418;11.064;2023-04-01T02:52:29;8.50;99.90
14359;DHT22;7263;49.418;11.064;2023-04-01T02:54:56;8.50;99.90
14359;DHT22;7263;49.418;11.064;2023-04-01T02:57:25;8.60;99.90
14359;DHT22;7263;49.418;11.064;2023-04-01T02:59:52;8.80;99.90
14359;DHT22;7263;49.418;11.064;2023-04-01T03:02:19;8.50;99.90
14359;DHT22;7263;49.418;11.064;2023-04-01T03:04:46;8.50;99.90
14359;DHT22;7263;49.418;11.064;2023-04-01T03:07:12;8.50;99.90
14359;DHT22;7263;49.418;11.064;2023-04-01T03:09:39;8.50;99.90
14359;DHT22;7263;49.418;11.064;2023-04-01T03:12:06;8.50;99.90
14359;DHT22;7263;49.418;11.064;2023-04-01T03:14:34;8.50;99.90
14359;DHT22;7263;49.418;11.064;2023-04-01T03:17:01;8.50;99.90
14359;DHT22;7263;49.418;11.064;2023-04-01T03:19:28;8.50;99.90
14359;DHT22;7263;49.418;11.064;2023-04-01T03:21:54;8.60;99.90
14359;DHT22;7263;49.418;11.064;2023-04-01T03:24:21;8.60;99.90
14359;DHT22;7263;49.418;11.064;2023-04-01T03:26:48;8.70;99.90
14359;DHT22;7263;49.418;11.064;2023-04-01T03:29:15;8.60;99.90
14359;DHT22;7263;49.418;11.064;2023-04-01T03:31:43;8.60;99.90
14359;DHT22;7263;49.418;11.064;2023-04-01T03:34:10;8.60;99.90
14359;DHT22;7263;49.418;11.064;2023-04-01T03:36:37;8.60;99.90
14359;DHT22;7263;49.418;11.064;2023-04-01T03:39:04;8.50;99.90
14359;DHT22;7263;49.418;11.064;2023-04-01T03:41:32;8.50;99.90
14359;DHT22;7263;49.418;11.064;2023-04-01T03:43:58;8.60;99.90
14359;DHT22;7263;49.418;11.064;2023-04-01T03:46:25;8.60;99.90
14359;DHT22;7263;49.418;11.064;2023-04-01T03:48:54;8.60;99.90
14359;DHT22;7263;49.418;11.064;2023-04-01T03:51:20;8.60;99.90
14359;DHT22;7263;49.418;11.064;2023-04-01T03:53:48;8.60;99.90
14359;DHT22;7263;49.418;11.064;2023-04-01T03:56:15;8.60;99.90
14359;DHT22;7263;49.418;11.064;2023-04-01T03:58:42;8.60;99.90
14359;DHT22;7263;49.418;11.064;2023-04-01T04:01:16;8.60;99.90
14359;DHT22;7263;49.418;11.064;2023-04-01T04:03:43;8.60;99.90
14359;DHT22;7263;49.418;11.064;2023-04-01T04:06:13;8.60;99.90
14359;DHT22;7263;49.418;11.064;2023-04-01T04:08:40;8.70;99.90
14359;DHT22;7263;49.418;11.064;2023-04-01T04:11:07;8.70;99.90
14359;DHT22;7263;49.418;11.064;2023-04-01T04:13:34;8.70;99.90
14359;DHT22;7263;49.418;11.064;2023-04-01T04:16:01;8.70;99.90
14359;DHT22;7263;49.418;11.064;2023-04-01T04:18:28;8.70;99.90
14359;DHT22;7263;49.418;11.064;2023-04-01T04:20:55;8.70;99.90
14359;DHT22;7263;49.418;11.064;2023-04-01T04:23:24;8.70;99.90
14359;DHT22;7263;49.418;11.064;2023-04-01T04:25:55;8.70;99.90
14359;DHT22;7263;49.418;11.064;2023-04-01T04:28:22;8.70;99.90
14359;DHT22;7263;49.418;11.064;2023-04-01T04:30:49;8.70;99.90
14359;DHT22;7263;49.418;11.064;2023-04-01T04:33:16;8.70;99.90
14359;DHT22;7263;49.418;11.064;2023-04-01T04:35:43;8.70;99.90
14359;DHT22;7263;49.418;11.064;2023-04-01T04:38:09;8.60;99.90
14359;DHT22;7263;49.418;11.064;2023-04-01T04:40:38;8.70;99.90
14359;DHT22;7263;49.418;11.064;2023-04-01T04:43:05;8.70;99.90
14359;DHT22;7263;49.418;11.064;2023-04-01T04:45:32;8.60;99.90
14359;DHT22;7263;49.418;11.064;2023-04-01T04:47:59;8.60;99.90
14359;DHT22;7263;49.418;11.064;2023-04-01T04:50:26;11.70;99.90
14359;DHT22;7263;49.418;11.064;2023-04-01T04:52:52;8.60;99.90
14359;DHT22;7263;49.418;11.064;2023-04-01T04:55:19;8.50;99.90
14359;DHT22;7263;49.418;11.064;2023-04-01T04:57:48;8.50;99.90
14359;DHT22;7263;49.418;11.064;2023-04-01T05:00:15;8.50;99.90
14359;DHT22;7263;49.418;11.064;2023-04-01T05:02:42;8.50;99.90
14359;DHT22;7263;49.418;11.064;2023-04-01T05:05:12;8.30;99.90
14359;DHT22;7263;49.418;11.064;2023-04-01T05:07:38;8.40;99.90
14359;DHT22;7263;49.418;11.064;2023-04-01T05:10:06;8.40;99.90
14359;DHT22;7263;49.418;11.064;2023-04-01T05:12:33;8.40;99.90
14359;DHT22;7263;49.418;11.064;2023-04-01T05:15:04;8.40;99.90
14359;DHT22;7263;49.418;11.064;2023-04-01T05:17:32;8.40;99.90
14359;DHT22;7263;49.418;11.064;2023-04-01T05:19:59;8.40;99.90
14359;DHT22;7263;49.418;11.064;2023-04-01T05:22:25;8.40;99.90
14359;DHT22;7263;49.418;11.064;2023-04-01T05:24:52;8.50;99.90
14359;DHT22;7263;49.418;11.064;2023-04-01T05:27:19;8.40;99.90
14359;DHT22;7263;49.418;11.064;2023-04-01T05:29:46;8.50;99.90
14359;DHT22;7263;49.418;11.064;2023-04-01T05:32:15;8.60;99.90
14359;DHT22;7263;49.418;11.064;2023-04-01T05:34:42;8.60;99.90
14359;DHT22;7263;49.418;11.064;2023-04-01T05:37:08;8.60;99.90
14359;DHT22;7263;49.418;11.064;2023-04-01T05:39:36;8.60;99.90
14359;DHT22;7263;49.418;11.064;2023-04-01T05:42:05;8.60;99.90
14359;DHT22;7263;49.418;11.064;2023-04-01T05:44:32;8.60;99.90
14359;DHT22;7263;49.418;11.064;2023-04-01T05:46:59;8.70;99.90
14359;DHT22;7263;49.418;11.064;2023-04-01T05:49:27;8.70;99.90
14359;DHT22;7263;49.418;11.064;2023-04-01T05:51:54;8.70;99.90
14359;DHT22;7263;49.418;11.064;2023-04-01T05:54:21;8.70;99.90
14359;DHT22;7263;49.418;11.064;2023-04-01T05:56:48;8.80;99.90
14359;DHT22;7263;49.418;11.064;2023-04-01T05:59:15;8.80;99.90
14359;DHT22;7263;49.418;11.064;2023-04-01T06:01:42;8.90;99.90
14359;DHT22;7263;49.418;11.064;2023-04-01T06:04:13;8.90;99.90
14359;DHT22;7263;49.418;11.064;2023-04-01T06:06:42;9.00;99.90
14359;DHT22;7263;49.418;11.064;2023-04-01T06:09:13;9.00;99.90
14359;DHT22;7263;49.418;11.064;2023-04-01T06:11:51;9.00;99.90
14359;DHT22;7263;49.418;11.064;2023-04-01T06:14:31;9.00;99.90
14359;DHT22;7263;49.418;11.064;2023-04-01T06:17:15;9.00;99.90
14359;DHT22;7263;49.418;11.064;2023-04-01T06:19:50;9.00;99.90
14359;DHT22;7263;49.418;11.064;2023-04-01T06:22:43;9.10;99.90
14359;DHT22;7263;49.418;11.064;2023-04-01T06:25:29;9.10;99.90
14359;DHT22;7263;49.418;11.064;2023-04-01T06:28:17;9.10;99.90
14359;DHT22;7263;49.418;11.064;2023-04-01T06:30:51;9.20;99.90
14359;DHT22;7263;49.418;11.064;2023-04-01T06:33:35;9.20;99.90
14359;DHT22;7263;49.418;11.064;2023-04-01T06:36:39;9.30;99.90
14359;DHT22;7263;49.418;11.064;2023-04-01T06:39:39;9.40;99.90
14359;DHT22;7263;49.418;11.064;2023-04-01T06:42:36;9.50;99.90
14359;DHT22;7263;49.418;11.064;2023-04-01T06:45:17;9.50;99.90
14359;DHT22;7263;49.418;11.064;2023-04-01T06:47:58;9.60;99.90
14359;DHT22;7263;49.418;11.064;2023-04-01T06:50:30;9.60;99.90
14359;DHT22;7263;49.418;11.064;2023-04-01T06:53:02;9.70;99.90
14359;DHT22;7263;49.418;11.064;2023-04-01T06:55:37;9.80;99.90
14359;DHT22;7263;49.418;11.064;2023-04-01T06:58:11;9.90;99.90
14359;DHT22;7263;49.418;11.064;2023-04-01T07:00:42;10.00;99.90
14359;DHT22;7263;49.418;11.064;2023-04-01T07:03:16;10.10;99.90
14359;DHT22;7263;49.418;11.064;2023-04-01T07:05:44;10.10;99.90
14359;DHT22;7263;49.418;11.064;2023-04-01T07:08:13;10.10;99.90
14359;DHT22;7263;49.418;11.064;2023-04-01T07:10:48;10.40;99.90
14359;DHT22;7263;49.418;11.064;2023-04-01T07:13:20;10.50;99.90
14359;DHT22;7263;49.418;11.064;2023-04-01T07:15:55;10.70;99.90
14359;DHT22;7263;49.418;11.064;2023-04-01T07:18:29;10.70;99.90
14359;DHT22;7263;49.418;11.064;2023-04-01T07:20:57;10.70;99.90
14359;DHT22;7263;49.418;11.064;2023-04-01T07:23:28;10.70;99.90
14359;DHT22;7263;49.418;11.064;2023-04-01T07:26:00;10.80;99.90
14359;DHT22;7263;49.418;11.064;2023-04-01T07:28:30;10.80;99.90
14359;DHT22;7263;49.418;11.064;2023-04-01T07:31:05;10.90;99.90
14359;DHT22;7263;49.418;11.064;2023-04-01T07:33:37;10.90;99.90
14359;DHT22;7263;49.418;11.064;2023-04-01T07:36:08;11.00;99.90
14359;DHT22;7263;49.418;11.064;2023-04-01T07:38:45;11.20;99.90
14359;DHT22;7263;49.418;11.064;2023-04-01T07:41:22;11.20;99.90
14359;DHT22;7263;49.418;11.064;2023-04-01T07:43:56;11.20;99.90
14359;DHT22;7263;49.418;11.064;2023-04-01T07:46:38;11.10;99.90
14359;DHT22;7263;49.418;11.064;2023-04-01T07:49:09;11.10;99.90
14359;DHT22;7263;49.418;11.064;2023-04-01T07:51:45;11.00;99.90
14359;DHT22;7263;49.418;11.064;2023-04-01T07:54:21;11.00;99.90
14359;DHT22;7263;49.418;11.064;2023-04-01T07:56:55;11.00;99.90
14359;DHT22;7263;49.418;11.064;2023-04-01T07:59:30;11.00;99.90
14359;DHT22;7263;49.418;11.064;2023-04-01T08:02:08;11.00;99.90
14359;DHT22;7263;49.418;11.064;2023-04-01T08:04:47;11.00;99.90
14359;DHT22;7263;49.418;11.064;2023-04-01T08:07:21;11.10;99.90
14359;DHT22;7263;49.418;11.064;2023-04-01T08:09:54;11.10;99.90
14359;DHT22;7263;49.418;11.064;2023-04-01T08:12:31;11.20;99.90
14359;DHT22;7263;49.418;11.064;2023-04-01T08:15:10;11.20;99.90
14359;DHT22;7263;49.418;11.064;2023-04-01T08:17:45;11.20;99.90
14359;DHT22;7263;49.418;11.064;2023-04-01T08:20:25;11.10;99.90
14359;DHT22;7263;49.418;11.064;2023-04-01T08:22:58;11.00;99.90
14359;DHT22;7263;49.418;11.064;2023-04-01T08:25:28;11.00;99.90
14359;DHT22;7263;49.418;11.064;2023-04-01T08:28:01;11.00;99.90
14359;DHT22;7263;49.418;11.064;2023-04-01T08:30:36;11.20;99.90
14359;DHT22;7263;49.418;11.064;2023-04-01T08:33:12;11.10;99.90
14359;DHT22;7263;49.418;11.064;2023-04-01T08:35:45;11.30;99.90
14359;DHT22;7263;49.418;11.064;2023-04-01T08:38:17;11.30;99.90
14359;DHT22;7263;49.418;11.064;2023-04-01T08:41:12;11.30;99.90
14359;DHT22;7263;49.418;11.064;2023-04-01T08:44:04;11.40;99.90
14359;DHT22;7263;49.418;11.064;2023-04-01T08:52:35;11.40;99.90
14359;DHT22;7263;49.418;11.064;2023-04-01T08:55:36;11.40;99.90
14359;DHT22;7263;49.418;11.064;2023-04-01T08:58:21;11.40;99.90
14359;DHT22;7263;49.418;11.064;2023-04-01T09:00:54;11.50;99.90
14359;DHT22;7263;49.418;11.064;2023-04-01T09:03:41;9.90;99.90
14359;DHT22;7263;49.418;11.064;2023-04-01T09:06:33;11.80;99.90
14359;DHT22;7263;49.418;11.064;2023-04-01T09:12:26;11.60;99.90
14359;DHT22;7263;49.418;11.064;2023-04-01T09:15:07;11.60;99.90
14359;DHT22;7263;49.418;11.064;2023-04-01T09:21:03;11.60;99.90
14359;DHT22;7263;49.418;11.064;2023-04-01T09:23:54;11.60;99.90
14359;DHT22;7263;49.418;11.064;2023-04-01T09:26:42;11.60;99.90
14359;DHT22;7263;49.418;11.064;2023-04-01T09:29:20;11.50;99.90
14359;DHT22;7263;49.418;11.064;2023-04-01T09:32:09;11.60;99.90
14359;DHT22;7263;49.418;11.064;2023-04-01T09:34:53;11.60;99.90
14359;DHT22;7263;49.418;11.064;2023-04-01T09:37:31;11.60;99.90
14359;DHT22;7263;49.418;11.064;2023-04-01T09:40:16;11.70;99.90
14359;DHT22;7263;49.418;11.064;2023-04-01T09:42:47;11.70;99.90
14359;DHT22;7263;49.418;11.064;2023-04-01T09:45:28;11.60;99.90
14359;DHT22;7263;49.418;11.064;2023-04-01T09:48:07;11.50;99.90
14359;DHT22;7263;49.418;11.064;2023-04-01T09:50:42;11.50;99.90
14359;DHT22;7263;49.418;11.064;2023-04-01T09:53:30;11.50;99.90
14359;DHT22;7263;49.418;11.064;2023-04-01T09:56:19;11.50;99.90
14359;DHT22;7263;49.418;11.064;2023-04-01T10:02:28;11.30;99.90
14359;DHT22;7263;49.418;11.064;2023-04-01T10:05:41;11.30;99.90
14359;DHT22;7263;49.418;11.064;2023-04-01T10:11:28;11.10;99.90
14359;DHT22;7263;49.418;11.064;2023-04-01T10:14:22;11.00;99.90
14359;DHT22;7263;49.418;11.064;2023-04-01T10:17:20;10.70;99.90
14359;DHT22;7263;49.418;11.064;2023-04-01T10:20:08;10.60;99.90
14359;DHT22;7263;49.418;11.064;2023-04-01T10:23:16;10.40;99.90
14359;DHT22;7263;49.418;11.064;2023-04-01T10:32:31;10.40;99.90
14359;DHT22;7263;49.418;11.064;2023-04-01T10:35:32;11.40;99.90
14359;DHT22;7263;49.418;11.064;2023-04-01T10:41:41;10.30;99.90
14359;DHT22;7263;49.418;11.064;2023-04-01T10:44:53;6.80;99.90
14359;DHT22;7263;49.418;11.064;2023-04-01T10:56:50;9.60;99.90
14359;DHT22;7263;49.418;11.064;2023-04-01T10:59:36;9.50;99.90
14359;DHT22;7263;49.418;11.064;2023-04-01T11:18:34;9.30;99.90
14359;DHT22;7263;49.418;11.064;2023-04-01T11:21:38;9.30;99.90
14359;DHT22;7263;49.418;11.064;2023-04-01T11:24:51;9.40;99.90
14359;DHT22;7263;49.418;11.064;2023-04-01T11:27:37;9.40;99.90
14359;DHT22;7263;49.418;11.064;2023-04-01T11:30:20;9.40;99.90
14359;DHT22;7263;49.418;11.064;2023-04-01T11:32:53;9.40;99.90
14359;DHT22;7263;49.418;11.064;2023-04-01T11:35:46;9.40;99.90
14359;DHT22;7263;49.418;11.064;2023-04-01T11:38:47;9.40;99.90
14359;DHT22;7263;49.418;11.064;2023-04-01T11:41:25;9.40;99.90
14359;DHT22;7263;49.418;11.064;2023-04-01T11:44:15;9.40;99.90
14359;DHT22;7263;49.418;11.064;2023-04-01T11:46:52;9.40;99.90
14359;DHT22;7263;49.418;11.064;2023-04-01T11:49:44;9.40;99.90
14359;DHT22;7263;49.418;11.064;2023-04-01T11:52:24;9.40;99.90
14359;DHT22;7263;49.418;11.064;2023-04-01T11:55:10;9.40;99.90
14359;DHT22;7263;49.418;11.064;2023-04-01T11:57:48;9.40;99.90
14359;DHT22;7263;49.418;11.064;2023-04-01T12:00:28;9.50;99.90
14359;DHT22;7263;49.418;11.064;2023-04-01T12:03:29;9.50;99.90
14359;DHT22;7263;49.418;11.064;2023-04-01T12:06:06;9.50;99.90
14359;DHT22;7263;49.418;11.064;2023-04-01T12:08:46;9.50;99.90
14359;DHT22;7263;49.418;11.064;2023-04-01T12:11:17;9.50;99.90
14359;DHT22;7263;49.418;11.064;2023-04-01T12:13:51;9.50;99.90
14359;DHT22;7263;49.418;11.064;2023-04-01T12:16:34;9.50;99.90
14359;DHT22;7263;49.418;11.064;2023-04-01T12:19:11;9.50;99.90
14359;DHT22;7263;49.418;11.064;2023-04-01T12:21:48;9.60;99.90
14359;DHT22;7263;49.418;11.064;2023-04-01T12:24:46;9.70;99.90
14359;DHT22;7263;49.418;11.064;2023-04-01T12:27:41;9.80;99.90
14359;DHT22;7263;49.418;11.064;2023-04-01T12:30:27;9.80;99.90
14359;DHT22;7263;49.418;11.064;2023-04-01T12:33:13;9.80;99.90
14359;DHT22;7263;49.418;11.064;2023-04-01T12:35:52;9.80;99.90
14359;DHT22;7263;49.418;11.064;2023-04-01T12:38:30;9.70;99.90
14359;DHT22;7263;49.418;11.064;2023-04-01T12:41:09;9.80;99.90
14359;DHT22;7263;49.418;11.064;2023-04-01T12:46:56;9.70;99.90
14359;DHT22;7263;49.418;11.064;2023-04-01T12:52:34;9.50;99.90
14359;DHT22;7263;49.418;11.064;2023-04-01T12:55:24;9.50;99.90
14359;DHT22;7263;49.418;11.064;2023-04-01T12:58:33;9.50;99.90
14359;DHT22;7263;49.418;11.064;2023-04-01T13:01:27;9.50;99.90
14359;DHT22;7263;49.418;11.064;2023-04-01T13:07:00;9.60;99.90
14359;DHT22;7263;49.418;11.064;2023-04-01T13:09:39;9.70;99.90
14359;DHT22;7263;49.418;11.064;2023-04-01T13:12:29;9.70;99.90
14359;DHT22;7263;49.418;11.064;2023-04-01T13:15:23;9.80;99.90
14359;DHT22;7263;49.418;11.064;2023-04-01T13:17:56;9.80;99.90
14359;DHT22;7263;49.418;11.064;2023-04-01T13:20:33;9.80;99.90
14359;DHT22;7263;49.418;11.064;2023-04-01T13:23:11;9.80;99.90
14359;DHT22;7263;49.418;11.064;2023-04-01T13:25:47;9.90;99.90
14359;DHT22;7263;49.418;11.064;2023-04-01T13:28:21;9.90;99.90
14359;DHT22;7263;49.418;11.064;2023-04-01T13:30:57;10.00;99.90
14359;DHT22;7263;49.418;11.064;2023-04-01T13:33:36;10.10;99.90
14359;DHT22;7263;49.418;11.064;2023-04-01T13:36:16;10.20;99.90
14359;DHT22;7263;49.418;11.064;2023-04-01T13:39:06;10.20;99.90
14359;DHT22;7263;49.418;11.064;2023-04-01T13:41:50;10.30;99.90
14359;DHT22;7263;49.418;11.064;2023-04-01T13:44:25;10.40;99.90
14359;DHT22;7263;49.418;11.064;2023-04-01T13:47:24;10.60;99.90
14359;DHT22;7263;49.418;11.064;2023-04-01T13:50:25;10.70;99.90
14359;DHT22;7263;49.418;11.064;2023-04-01T13:53:31;10.80;99.90
14359;DHT22;7263;49.418;11.064;2023-04-01T13:56:08;10.70;99.90
14359;DHT22;7263;49.418;11.064;2023-04-01T13:58:52;10.70;99.90
14359;DHT22;7263;49.418;11.064;2023-04-01T14:01:32;10.80;99.90
14359;DHT22;7263;49.418;11.064;2023-04-01T14:07:37;10.90;99.90
14359;DHT22;7263;49.418;11.064;2023-04-01T14:10:18;10.90;99.90
14359;DHT22;7263;49.418;11.064;2023-04-01T14:12:49;11.00;99.90
14359;DHT22;7263;49.418;11.064;2023-04-01T14:18:39;11.00;99.90
14359;DHT22;7263;49.418;11.064;2023-04-01T14:21:19;10.80;99.90
14359;DHT22;7263;49.418;11.064;2023-04-01T14:23:57;10.70;99.90
14359;DHT22;7263;49.418;11.064;2023-04-01T14:26:50;10.50;99.90
14359;DHT22;7263;49.418;11.064;2023-04-01T14:29:28;10.50;99.90
14359;DHT22;7263;49.418;11.064;2023-04-01T14:32:05;10.40;99.90
14359;DHT22;7263;49.418;11.064;2023-04-01T14:34:51;10.30;99.90
14359;DHT22;7263;49.418;11.064;2023-04-01T14:37:48;10.20;99.90
14359;DHT22;7263;49.418;11.064;2023-04-01T14:40:28;10.10;99.90
14359;DHT22;7263;49.418;11.064;2023-04-01T14:43:20;10.00;99.90
14359;DHT22;7263;49.418;11.064;2023-04-01T14:46:14;9.90;99.90
14359;DHT22;7263;49.418;11.064;2023-04-01T14:48:51;9.90;99.90
14359;DHT22;7263;49.418;11.064;2023-04-01T14:51:23;9.90;99.90
14359;DHT22;7263;49.418;11.064;2023-04-01T14:54:03;9.90;99.90
14359;DHT22;7263;49.418;11.064;2023-04-01T14:56:40;9.90;99.90
14359;DHT22;7263;49.418;11.064;2023-04-01T14:59:13;9.90;99.90
14359;DHT22;7263;49.418;11.064;2023-04-01T15:01:46;10.20;99.90
14359;DHT22;7263;49.418;11.064;2023-04-01T15:13:37;9.60;99.90
14359;DHT22;7263;49.418;11.064;2023-04-01T15:16:19;9.60;99.90
14359;DHT22;7263;49.418;11.064;2023-04-01T15:18:53;9.80;99.90
14359;DHT22;7263;49.418;11.064;2023-04-01T15:21:44;9.90;99.90
14359;DHT22;7263;49.418;11.064;2023-04-01T15:24:19;10.00;99.90
14359;DHT22;7263;49.418;11.064;2023-04-01T15:27:01;10.10;99.90
14359;DHT22;7263;49.418;11.064;2023-04-01T15:29:54;10.20;99.90
14359;DHT22;7263;49.418;11.064;2023-04-01T15:32:29;10.30;99.90
14359;DHT22;7263;49.418;11.064;2023-04-01T15:35:06;10.30;99.90
14359;DHT22;7263;49.418;11.064;2023-04-01T15:37:42;10.20;99.90
14359;DHT22;7263;49.418;11.064;2023-04-01T15:40:19;10.20;99.90
14359;DHT22;7263;49.418;11.064;2023-04-01T15:42:59;10.20;99.90
14359;DHT22;7263;49.418;11.064;2023-04-01T15:45:39;10.10;99.90
14359;DHT22;7263;49.418;11.064;2023-04-01T15:48:21;10.10;99.90
14359;DHT22;7263;49.418;11.064;2023-04-01T15:51:06;10.10;99.90
14359;DHT22;7263;49.418;11.064;2023-04-01T15:56:30;10.20;99.90
14359;DHT22;7263;49.418;11.064;2023-04-01T15:59:18;10.30;99.90
14359;DHT22;7263;49.418;11.064;2023-04-01T16:01:53;10.30;99.90
14359;DHT22;7263;49.418;11.064;2023-04-01T16:04:48;10.30;99.90
14359;DHT22;7263;49.418;11.064;2023-04-01T16:07:38;10.20;99.90
14359;DHT22;7263;49.418;11.064;2023-04-01T16:10:24;10.20;99.90
14359;DHT22;7263;49.418;11.064;2023-04-01T16:13:04;10.20;99.90
14359;DHT22;7263;49.418;11.064;2023-04-01T16:15:44;10.10;99.90
14359;DHT22;7263;49.418;11.064;2023-04-01T16:21:24;10.10;99.90
14359;DHT22;7263;49.418;11.064;2023-04-01T16:23:57;10.10;99.90
14359;DHT22;7263;49.418;11.064;2023-04-01T16:26:28;10.10;99.90
14359;DHT22;7263;49.418;11.064;2023-04-01T16:29:04;10.10;99.90
14359;DHT22;7263;49.418;11.064;2023-04-01T16:31:38;10.00;99.90
14359;DHT22;7263;49.418;11.064;2023-04-01T16:34:14;10.00;99.90
14359;DHT22;7263;49.418;11.064;2023-04-01T16:36:46;10.00;99.90
14359;DHT22;7263;49.418;11.064;2023-04-01T16:39:27;9.90;99.90
14359;DHT22;7263;49.418;11.064;2023-04-01T16:42:09;9.90;99.90
14359;DHT22;7263;49.418;11.064;2023-04-01T16:44:48;9.80;99.90
14359;DHT22;7263;49.418;11.064;2023-04-01T16:47:20;9.80;99.90
14359;DHT22;7263;49.418;11.064;2023-04-01T16:49:52;9.80;99.90
14359;DHT22;7263;49.418;11.064;2023-04-01T16:52:32;9.70;99.90
14359;DHT22;7263;49.418;11.064;2023-04-01T16:55:07;9.70;99.90
14359;DHT22;7263;49.418;11.064;2023-04-01T16:57:46;9.70;99.90
14359;DHT22;7263;49.418;11.064;2023-04-01T17:00:22;9.60;99.90
14359;DHT22;7263;49.418;11.064;2023-04-01T17:03:01;9.60;99.90
14359;DHT22;7263;49.418;11.064;2023-04-01T17:05:44;9.60;99.90
14359;DHT22;7263;49.418;11.064;2023-04-01T17:08:41;9.60;99.90
14359;DHT22;7263;49.418;11.064;2023-04-01T17:11:16;9.60;99.90
14359;DHT22;7263;49.418;11.064;2023-04-01T17:13:47;9.60;99.90
14359;DHT22;7263;49.418;11.064;2023-04-01T17:19:32;9.50;99.90
14359;DHT22;7263;49.418;11.064;2023-04-01T17:22:07;9.50;99.90
14359;DHT22;7263;49.418;11.064;2023-04-01T17:24:49;9.50;99.90
14359;DHT22;7263;49.418;11.064;2023-04-01T17:27:25;9.50;99.90
14359;DHT22;7263;49.418;11.064;2023-04-01T17:30:13;9.50;99.90
14359;DHT22;7263;49.418;11.064;2023-04-01T17:33:00;9.50;99.90
14359;DHT22;7263;49.418;11.064;2023-04-01T17:35:35;9.60;99.90
14359;DHT22;7263;49.418;11.064;2023-04-01T17:38:13;9.50;99.90
14359;DHT22;7263;49.418;11.064;2023-04-01T17:40:52;9.50;99.90
14359;DHT22;7263;49.418;11.064;2023-04-01T17:43:26;9.50;99.90
14359;DHT22;7263;49.418;11.064;2023-04-01T17:45:57;9.50;99.90
14359;DHT22;7263;49.418;11.064;2023-04-01T17:48:32;9.50;99.90
14359;DHT22;7263;49.418;11.064;2023-04-01T17:51:17;9.50;99.90
14359;DHT22;7263;49.418;11.064;2023-04-01T17:53:52;9.50;99.90
14359;DHT22;7263;49.418;11.064;2023-04-01T17:56:34;9.50;99.90
14359;DHT22;7263;49.418;11.064;2023-04-01T17:59:13;9.50;99.90
14359;DHT22;7263;49.418;11.064;2023-04-01T18:01:54;9.50;99.90
14359;DHT22;7263;49.418;11.064;2023-04-01T18:04:36;9.50;99.90
14359;DHT22;7263;49.418;11.064;2023-04-01T18:10:32;9.50;99.90